createdAt,value
2023-04-10T00:00:39.585Z,7.80
2023-04-10T00:03:07.807Z,7.60
2023-04-10T00:05:35.543Z,6.20
2023-04-10T00:08:03.707Z,10.00
2023-04-10T00:10:32.149Z,10.60
2023-04-10T00:13:01.232Z,11.20
2023-04-10T00:15:29.129Z,6.60
2023-04-10T00:17:56.724Z,4.20
2023-04-10T00:20:26.568Z,8.80
2023-04-10T00:22:54.848Z,6.20
2023-04-10T00:25:23.344Z,8.40
2023-04-10T00:27:51.205Z,7.60
2023-04-10T00:30:19.435Z,7.40
2023-04-10T00:32:47.068Z,3.80
2023-04-10T00:35:14.897Z,7.40
2023-04-10T00:37:42.384Z,7.20
2023-04-10T00:40:10.254Z,9.40
2023-04-10T00:42:37.665Z,7.00
2023-04-10T00:45:05.953Z,6.40
2023-04-10T00:47:35.406Z,6.40
2023-04-10T00:50:03.343Z,6.40
2023-04-10T00:52:31.306Z,6.40
2023-04-10T00:54:59.157Z,9.60
2023-04-10T00:57:27.429Z,11.80
2023-04-10T00:59:55.609Z,10.60
2023-04-10T01:02:23.002Z,7.00
2023-04-10T01:04:51.805Z,9.40
2023-04-10T01:07:35.070Z,5.80
2023-04-10T01:10:08.100Z,7.80
2023-04-10T01:13:01.282Z,6.00
2023-04-10T01:15:31.384Z,7.00
2023-04-10T01:18:39.173Z,10.20
2023-04-10T01:21:11.570Z,5.60
2023-04-10T01:23:49.949Z,7.80
2023-04-10T01:26:27.538Z,6.60
2023-04-10T01:29:08.396Z,9.80
2023-04-10T01:32:02.211Z,12.40
2023-04-10T01:34:52.042Z,12.60
2023-04-10T01:37:37.164Z,12.00
2023-04-10T01:40:08.788Z,6.40
2023-04-10T01:42:44.980Z,8.60
2023-04-10T01:45:18.771Z,7.40
2023-04-10T01:47:49.119Z,6.80
2023-04-10T01:50:17.115Z,12.60
2023-04-10T01:52:45.752Z,9.80
2023-04-10T01:55:21.881Z,9.80
2023-04-10T01:57:57.026Z,9.60
2023-04-10T02:00:25.743Z,9.00
2023-04-10T02:02:53.781Z,10.40
2023-04-10T02:05:22.505Z,10.80
2023-04-10T02:08:05.950Z,8.20
2023-04-10T02:10:56.030Z,7.80
2023-04-10T02:13:28.468Z,10.40
2023-04-10T02:16:02.064Z,8.80
2023-04-10T02:18:34.165Z,6.80
2023-04-10T02:21:02.957Z,9.20
2023-04-10T02:23:30.750Z,11.20
2023-04-10T02:25:58.833Z,6.80
2023-04-10T02:28:26.504Z,7.00
2023-04-10T02:30:54.118Z,9.20
2023-04-10T02:33:21.742Z,8.20
2023-04-10T02:35:50.395Z,5.40
2023-04-10T02:38:17.910Z,7.80
2023-04-10T02:40:46.456Z,6.20
2023-04-10T02:43:15.426Z,6.00
2023-04-10T02:45:43.185Z,7.00
2023-04-10T02:48:14.099Z,11.60
2023-04-10T02:50:46.585Z,7.80
2023-04-10T02:53:16.386Z,11.60
2023-04-10T02:55:43.725Z,7.00
2023-04-10T02:58:14.454Z,13.20
2023-04-10T03:00:47.916Z,3.80
2023-04-10T03:03:21.675Z,8.80
2023-04-10T03:05:54.641Z,6.00
2023-04-10T03:08:32.322Z,7.00
2023-04-10T03:10:59.816Z,10.00
2023-04-10T03:13:27.147Z,8.60
2023-04-10T03:15:54.724Z,8.60
2023-04-10T03:18:23.008Z,7.00
2023-04-10T03:20:53.116Z,6.80
2023-04-10T03:23:21.579Z,7.60
2023-04-10T03:25:55.108Z,6.40
2023-04-10T03:28:26.365Z,6.20
2023-04-10T03:30:53.955Z,7.60
2023-04-10T03:33:21.593Z,10.20
2023-04-10T03:35:49.235Z,5.80
2023-04-10T03:38:16.582Z,10.20
2023-04-10T03:40:44.025Z,7.00
2023-04-10T03:43:11.985Z,7.00
2023-04-10T03:45:39.600Z,7.80
2023-04-10T03:48:07.661Z,5.20
2023-04-10T03:50:42.335Z,6.80
2023-04-10T03:53:10.315Z,7.00
2023-04-10T03:55:38.931Z,9.20
2023-04-10T03:58:06.550Z,9.00
2023-04-10T04:00:34.424Z,10.00
2023-04-10T04:03:12.077Z,9.20
2023-04-10T04:06:02.561Z,6.00
2023-04-10T04:08:36.651Z,5.20
2023-04-10T04:11:29.779Z,7.80
2023-04-10T04:14:01.478Z,9.60
2023-04-10T04:17:07.472Z,8.20
2023-04-10T04:19:53.048Z,8.20
2023-04-10T04:22:47.122Z,0.00
2023-04-10T04:25:34.908Z,9.60
2023-04-10T04:28:23.279Z,9.40
2023-04-10T04:31:11.548Z,9.20
2023-04-10T04:33:51.783Z,7.60
2023-04-10T04:36:38.249Z,9.40
2023-04-10T04:39:31.885Z,11.20
2023-04-10T04:42:16.046Z,13.40
2023-04-10T04:45:02.147Z,11.40
2023-04-10T04:47:46.261Z,13.40
2023-04-10T04:50:26.439Z,11.40
2023-04-10T04:53:13.557Z,14.40
2023-04-10T04:56:07.434Z,12.00
2023-04-10T04:58:53.880Z,6.00
2023-04-10T05:01:41.925Z,10.80
2023-04-10T05:04:21.380Z,10.60
2023-04-10T05:07:07.339Z,8.00
2023-04-10T05:09:53.588Z,13.00
2023-04-10T05:12:21.083Z,11.00
2023-04-10T05:15:20.693Z,11.40
2023-04-10T05:18:14.493Z,9.20
2023-04-10T05:21:00.312Z,10.50
2023-04-10T05:24:01.350Z,11.00
2023-04-10T05:26:37.639Z,10.50
2023-04-10T05:29:12.732Z,10.00
2023-04-10T05:31:58.843Z,9.25
2023-04-10T05:34:58.937Z,11.00
2023-04-10T05:37:46.523Z,13.25
2023-04-10T05:40:33.589Z,8.50
2023-04-10T05:43:19.510Z,10.50
2023-04-10T05:46:05.991Z,10.00
2023-04-10T05:48:56.961Z,12.50
2023-04-10T05:51:41.284Z,10.50
2023-04-10T05:54:35.081Z,10.75
2023-04-10T05:57:21.344Z,10.50
2023-04-10T05:59:49.209Z,12.00
2023-04-10T06:02:29.118Z,9.60
2023-04-10T06:04:57.149Z,7.60
2023-04-10T06:07:25.149Z,6.40
2023-04-10T06:09:53.063Z,4.00
2023-04-10T06:12:21.565Z,5.60
2023-04-10T06:14:50.250Z,7.00
2023-04-10T06:17:21.871Z,5.20
2023-04-10T06:19:49.641Z,5.60
2023-04-10T06:22:18.357Z,8.00
2023-04-10T06:24:46.089Z,5.40
2023-04-10T06:27:13.722Z,6.60
2023-04-10T06:29:41.937Z,5.20
2023-04-10T06:32:09.775Z,6.00
2023-04-10T06:34:40.877Z,4.00
2023-04-10T06:37:10.282Z,4.00
2023-04-10T06:39:39.574Z,8.00
2023-04-10T06:42:07.049Z,5.80
2023-04-10T06:44:46.144Z,5.20
2023-04-10T06:47:14.018Z,8.00
2023-04-10T06:49:41.827Z,2.00
2023-04-10T06:52:11.555Z,3.60
2023-04-10T06:54:39.361Z,4.00
2023-04-10T06:57:07.809Z,6.80
2023-04-10T06:59:38.102Z,5.80
2023-04-10T07:02:11.980Z,7.60
2023-04-10T07:04:39.691Z,10.40
2023-04-10T07:07:10.130Z,19.20
2023-04-10T07:09:38.254Z,17.60
2023-04-10T07:12:15.236Z,21.40
2023-04-10T07:14:50.615Z,15.20
2023-04-10T07:17:18.474Z,7.20
2023-04-10T07:19:46.413Z,5.00
2023-04-10T07:22:15.845Z,3.20
2023-04-10T07:24:44.695Z,5.00
2023-04-10T07:27:13.206Z,4.20
2023-04-10T07:29:40.655Z,4.20
2023-04-10T07:32:08.573Z,5.40
2023-04-10T07:34:36.933Z,7.80
2023-04-10T07:37:04.490Z,7.20
2023-04-10T07:39:32.391Z,6.00
2023-04-10T07:42:00.524Z,4.80
2023-04-10T07:44:28.973Z,3.60
2023-04-10T07:46:57.212Z,7.40
2023-04-10T07:49:25.204Z,4.00
2023-04-10T07:51:53.506Z,3.60
2023-04-10T07:54:22.674Z,3.00
2023-04-10T07:56:53.951Z,2.00
2023-04-10T07:59:21.687Z,4.40
2023-04-10T08:01:49.394Z,9.80
2023-04-10T08:04:17.424Z,8.00
2023-04-10T08:06:45.328Z,4.00
2023-04-10T08:09:13.255Z,8.40
2023-04-10T08:11:41.094Z,5.40
2023-04-10T08:14:09.017Z,4.00
2023-04-10T08:16:39.084Z,1.00
2023-04-10T08:19:06.785Z,3.40
2023-04-10T08:21:34.277Z,1.40
2023-04-10T08:24:03.725Z,4.20
2023-04-10T08:26:31.528Z,2.40
2023-04-10T08:29:01.159Z,2.80
2023-04-10T08:31:30.025Z,4.80
2023-04-10T08:33:58.839Z,2.40
2023-04-10T08:36:27.548Z,4.80
2023-04-10T08:38:55.270Z,2.20
2023-04-10T08:41:23.081Z,2.60
2023-04-10T08:43:51.547Z,3.40
2023-04-10T08:46:20.407Z,4.40
2023-04-10T08:49:01.060Z,3.20
2023-04-10T08:51:43.854Z,3.60
2023-04-10T08:54:20.293Z,4.00
2023-04-10T08:56:51.838Z,3.00
2023-04-10T08:59:19.698Z,3.20
2023-04-10T09:01:47.799Z,3.60
2023-04-10T09:04:17.408Z,5.00
2023-04-10T09:06:45.473Z,7.20
2023-04-10T09:09:13.150Z,5.00
2023-04-10T09:11:53.131Z,5.00
2023-04-10T09:14:25.880Z,3.20
2023-04-10T09:16:55.282Z,3.00
2023-04-10T09:19:42.000Z,8.60
2023-04-10T09:22:09.913Z,3.00
2023-04-10T09:24:52.313Z,5.60
2023-04-10T09:27:35.770Z,4.00
2023-04-10T09:30:05.004Z,4.00
2023-04-10T09:32:36.075Z,3.80
2023-04-10T09:35:05.408Z,2.40
2023-04-10T09:40:45.863Z,2.40
2023-04-10T09:43:38.080Z,17.00
2023-04-10T09:46:07.676Z,4.00
2023-04-10T09:48:35.374Z,3.20
2023-04-10T09:51:03.729Z,3.80
2023-04-10T09:53:31.724Z,3.80
2023-04-10T09:55:59.627Z,2.60
2023-04-10T09:58:28.220Z,5.00
2023-04-10T10:00:56.389Z,2.00
2023-04-10T10:03:25.945Z,3.20
2023-04-10T10:05:53.906Z,7.80
2023-04-10T10:08:22.405Z,7.40
2023-04-10T10:10:53.995Z,3.80
2023-04-10T10:13:42.174Z,8.00
2023-04-10T10:16:12.726Z,5.80
2023-04-10T10:18:47.805Z,3.00
2023-04-10T10:21:16.665Z,6.40
2023-04-10T10:23:44.801Z,3.00
2023-04-10T10:26:13.074Z,4.00
2023-04-10T10:28:42.467Z,6.00
2023-04-10T10:31:11.660Z,10.60
2023-04-10T10:33:39.779Z,6.00
2023-04-10T10:36:09.445Z,4.20
2023-04-10T10:38:53.738Z,3.00
2023-04-10T10:41:33.072Z,3.80
2023-04-10T10:44:19.188Z,3.40
2023-04-10T10:46:58.665Z,8.80
2023-04-10T10:49:54.235Z,2.00
2023-04-10T10:52:43.955Z,4.80
2023-04-10T10:55:26.527Z,3.00
2023-04-10T10:57:56.087Z,2.00
2023-04-10T11:00:47.538Z,4.20
2023-04-10T11:03:15.264Z,2.00
2023-04-10T11:06:17.221Z,12.25
2023-04-10T11:08:53.910Z,4.00
2023-04-10T11:11:27.656Z,2.80
2023-04-10T11:13:57.997Z,1.40
2023-04-10T11:16:47.107Z,2.60
2023-04-10T11:19:20.007Z,2.00
2023-04-10T11:22:07.881Z,3.40
2023-04-10T11:24:59.007Z,3.80
2023-04-10T11:27:40.359Z,3.25
2023-04-10T11:30:30.088Z,3.40
2023-04-10T11:32:59.159Z,1.60
2023-04-10T11:35:31.856Z,4.00
2023-04-10T11:38:18.188Z,2.00
2023-04-10T11:41:02.878Z,3.75
2023-04-10T11:43:31.612Z,8.75
2023-04-10T11:46:07.889Z,5.25
2023-04-10T11:48:41.009Z,11.00
2023-04-10T11:51:10.466Z,3.75
2023-04-10T11:53:39.441Z,6.00
2023-04-10T11:56:15.885Z,5.00
2023-04-10T11:58:43.519Z,3.50
2023-04-10T12:01:14.621Z,4.00
2023-04-10T12:03:44.298Z,24.25
2023-04-10T12:06:14.293Z,3.50
2023-04-10T12:08:48.091Z,3.00
2023-04-10T12:11:20.741Z,2.00
2023-04-10T12:13:49.245Z,6.75
2023-04-10T12:16:17.085Z,32.50
2023-04-10T12:18:47.816Z,3.50
2023-04-10T12:21:15.642Z,17.50
2023-04-10T12:23:43.676Z,25.50
2023-04-10T12:26:17.162Z,41.25
2023-04-10T12:28:59.056Z,6.50
2023-04-10T12:31:32.044Z,6.75
2023-04-10T12:34:01.547Z,2.50
2023-04-10T12:36:30.604Z,2.50
2023-04-10T12:38:59.845Z,1.00
2023-04-10T12:41:30.369Z,3.50
2023-04-10T12:44:13.066Z,1.00
2023-04-10T12:46:41.841Z,3.00
2023-04-10T12:49:15.059Z,3.00
2023-04-10T12:51:49.693Z,2.50
2023-04-10T12:54:37.567Z,6.50
2023-04-10T12:57:05.211Z,4.00
2023-04-10T12:59:33.212Z,4.00
2023-04-10T13:02:00.896Z,4.75
2023-04-10T13:04:32.255Z,3.50
2023-04-10T13:06:59.970Z,3.00
2023-04-10T13:09:27.942Z,2.50
2023-04-10T13:11:57.162Z,5.25
2023-04-10T13:14:24.775Z,2.50
2023-04-10T13:16:52.400Z,2.50
2023-04-10T13:19:19.938Z,3.00
2023-04-10T13:21:47.482Z,3.00
2023-04-10T13:24:16.786Z,1.50
2023-04-10T13:26:45.000Z,2.50
2023-04-10T13:29:12.561Z,3.00
2023-04-10T13:31:40.231Z,4.00
2023-04-10T13:34:07.716Z,2.00
2023-04-10T13:36:35.458Z,4.00
2023-04-10T13:39:02.874Z,4.50
2023-04-10T13:41:30.849Z,2.75
2023-04-10T13:43:58.140Z,3.50
2023-04-10T13:46:26.778Z,2.75
2023-04-10T13:48:54.162Z,3.00
2023-04-10T13:51:21.813Z,3.75
2023-04-10T13:53:49.253Z,4.00
2023-04-10T13:56:16.600Z,3.00
2023-04-10T13:58:46.827Z,6.75
2023-04-10T14:01:14.564Z,4.50
2023-04-10T14:03:42.093Z,5.25
2023-04-10T14:06:09.557Z,5.00
2023-04-10T14:08:36.864Z,4.00
2023-04-10T14:11:04.384Z,4.50
2023-04-10T14:13:31.708Z,4.00
2023-04-10T14:15:59.115Z,3.25
2023-04-10T14:18:26.378Z,3.50
2023-04-10T14:20:53.882Z,0.00
2023-04-10T14:23:22.745Z,4.00
2023-04-10T14:25:50.933Z,4.75
2023-04-10T14:28:18.361Z,6.00
2023-04-10T14:30:51.583Z,2.00
2023-04-10T14:33:20.041Z,3.00
2023-04-10T14:35:48.430Z,4.00
2023-04-10T14:38:16.251Z,2.25
2023-04-10T14:40:45.965Z,3.00
2023-04-10T14:43:13.517Z,5.75
2023-04-10T14:45:41.151Z,3.00
2023-04-10T14:48:09.219Z,3.50
2023-04-10T14:50:36.807Z,3.75
2023-04-10T14:53:06.290Z,2.25
2023-04-10T14:55:33.600Z,3.00
2023-04-10T14:58:01.063Z,2.25
2023-04-10T15:00:30.051Z,1.00
2023-04-10T15:02:57.852Z,6.25
2023-04-10T15:05:26.492Z,4.00
2023-04-10T15:07:54.687Z,6.00
2023-04-10T15:10:22.147Z,5.00
2023-04-10T15:12:50.615Z,4.75
2023-04-10T15:15:18.678Z,6.50
2023-04-10T15:17:46.130Z,7.75
2023-04-10T15:20:14.377Z,7.25
2023-04-10T15:22:43.287Z,6.50
2023-04-10T15:25:13.451Z,7.75
2023-04-10T15:27:41.158Z,9.25
2023-04-10T15:30:08.934Z,5.75
2023-04-10T15:32:38.451Z,8.25
2023-04-10T15:35:06.899Z,4.75
2023-04-10T15:37:36.846Z,8.00
2023-04-10T15:40:07.992Z,5.50
2023-04-10T15:42:35.763Z,7.00
2023-04-10T15:45:03.751Z,8.25
2023-04-10T15:47:31.415Z,7.75
2023-04-10T15:49:59.416Z,7.25
2023-04-10T15:52:26.964Z,7.75
2023-04-10T15:54:54.411Z,5.25
2023-04-10T15:57:21.800Z,7.25
2023-04-10T15:59:53.847Z,6.75
2023-04-10T16:02:21.586Z,2.75
2023-04-10T16:04:49.379Z,2.50
2023-04-10T16:07:17.021Z,3.00
2023-04-10T16:09:44.588Z,4.00
2023-04-10T16:12:13.288Z,4.50
2023-04-10T16:14:40.693Z,5.50
2023-04-10T16:17:08.387Z,6.50
2023-04-10T16:19:35.858Z,4.25
2023-04-10T16:22:03.353Z,6.75
2023-04-10T16:24:30.614Z,5.00
2023-04-10T16:26:58.059Z,6.75
2023-04-10T16:29:25.318Z,4.50
2023-04-10T16:31:52.740Z,4.50
2023-04-10T16:34:20.088Z,5.25
2023-04-10T16:36:47.523Z,5.00
2023-04-10T16:39:15.296Z,5.00
2023-04-10T16:41:42.725Z,3.00
2023-04-10T16:44:10.097Z,8.00
2023-04-10T16:46:37.587Z,8.25
2023-04-10T16:49:05.072Z,7.50
2023-04-10T16:51:32.585Z,6.00
2023-04-10T16:54:00.144Z,9.00
2023-04-10T16:56:27.690Z,7.25
2023-04-10T16:58:55.216Z,8.75
2023-04-10T17:01:27.462Z,7.25
2023-04-10T17:03:55.462Z,9.75
2023-04-10T17:06:23.181Z,8.00
2023-04-10T17:08:50.812Z,6.50
2023-04-10T17:11:18.195Z,11.25
2023-04-10T17:13:46.643Z,9.25
2023-04-10T17:16:14.692Z,6.75
2023-04-10T17:18:43.738Z,8.00
2023-04-10T17:21:12.656Z,9.75
2023-04-10T17:23:41.096Z,9.00
2023-04-10T17:26:13.959Z,5.00
2023-04-10T17:28:44.561Z,11.00
2023-04-10T17:31:12.946Z,7.75
2023-04-10T17:33:43.653Z,8.75
2023-04-10T17:36:12.643Z,10.80
2023-04-10T17:38:41.284Z,9.25
2023-04-10T17:41:10.978Z,11.80
2023-04-10T17:43:38.326Z,9.60
2023-04-10T17:46:06.034Z,8.40
2023-04-10T17:48:34.626Z,11.20
2023-04-10T17:51:06.950Z,7.00
2023-04-10T17:53:34.374Z,9.20
2023-04-10T17:56:02.071Z,5.00
2023-04-10T17:58:29.598Z,14.40
2023-04-10T18:00:56.992Z,13.00
2023-04-10T18:03:24.403Z,5.80
2023-04-10T18:05:51.737Z,10.00
2023-04-10T18:08:19.236Z,10.40
2023-04-10T18:10:46.470Z,10.00
2023-04-10T18:13:13.809Z,8.60
2023-04-10T18:15:41.177Z,7.20
2023-04-10T18:18:08.596Z,10.00
2023-04-10T18:20:35.840Z,9.20
2023-04-10T18:23:04.674Z,9.00
2023-04-10T18:25:32.028Z,10.00
2023-04-10T18:28:13.541Z,8.20
2023-04-10T18:30:42.360Z,7.60
2023-04-10T18:33:11.458Z,8.60
2023-04-10T18:35:39.288Z,8.00
2023-04-10T18:38:07.885Z,8.00
2023-04-10T18:40:37.000Z,7.80
2023-04-10T18:43:04.375Z,8.00
2023-04-10T18:45:36.695Z,7.80
2023-04-10T18:48:04.155Z,7.00
2023-04-10T18:50:35.103Z,8.20
2023-04-10T18:53:02.583Z,9.00
2023-04-10T18:55:29.813Z,9.00
2023-04-10T18:57:57.573Z,9.20
2023-04-10T19:00:24.838Z,6.80
2023-04-10T19:02:52.350Z,8.00
2023-04-10T19:05:20.028Z,7.00
2023-04-10T19:08:00.864Z,7.00
2023-04-10T19:10:31.074Z,7.00
2023-04-10T19:12:58.413Z,7.40
2023-04-10T19:15:25.763Z,9.00
2023-04-10T19:17:54.128Z,7.60
2023-04-10T19:20:48.708Z,6.40
2023-04-10T19:23:09.780Z,10.20
2023-04-10T19:25:37.161Z,9.00
2023-04-10T19:28:04.837Z,5.60
2023-04-10T19:30:32.371Z,6.60
2023-04-10T19:32:59.774Z,2.80
2023-04-10T19:35:27.401Z,10.20
2023-04-10T19:37:58.438Z,9.20
2023-04-10T19:40:25.799Z,9.40
2023-04-10T19:42:53.575Z,7.20
2023-04-10T19:45:22.514Z,2.00
2023-04-10T19:47:53.486Z,6.00
2023-04-10T19:50:21.177Z,10.00
2023-04-10T19:52:48.657Z,8.00
2023-04-10T19:55:18.750Z,9.40
2023-04-10T19:57:46.711Z,8.40
2023-04-10T20:00:14.988Z,10.80
2023-04-10T20:02:42.740Z,9.00
2023-04-10T20:05:10.921Z,10.60
2023-04-10T20:07:38.686Z,9.20
2023-04-10T20:10:06.741Z,10.40
2023-04-10T20:12:34.433Z,10.20
2023-04-10T20:15:02.968Z,9.20
2023-04-10T20:17:31.115Z,11.20
2023-04-10T20:19:58.888Z,7.60
2023-04-10T20:22:26.402Z,11.00
2023-04-10T20:24:54.121Z,11.60
2023-04-10T20:27:21.648Z,10.80
2023-04-10T20:29:50.494Z,7.60
2023-04-10T20:32:18.220Z,7.60
2023-04-10T20:34:45.932Z,11.00
2023-04-10T20:37:17.644Z,8.00
2023-04-10T20:39:45.329Z,9.20
2023-04-10T20:42:12.697Z,12.80
2023-04-10T20:44:40.224Z,10.00
2023-04-10T20:47:07.926Z,10.40
2023-04-10T20:49:37.791Z,10.40
2023-04-10T20:52:06.441Z,12.60
2023-04-10T20:54:34.165Z,11.60
2023-04-10T20:57:02.127Z,12.40
2023-04-10T20:59:30.125Z,5.40
2023-04-10T21:01:59.282Z,8.80
2023-04-10T21:04:26.951Z,10.00
2023-04-10T21:06:54.602Z,10.60
2023-04-10T21:09:22.248Z,8.20
2023-04-10T21:11:49.993Z,10.60
2023-04-10T21:14:17.565Z,12.60
2023-04-10T21:16:46.214Z,10.60
2023-04-10T21:19:14.004Z,10.20
2023-04-10T21:21:41.646Z,6.60
2023-04-10T21:24:09.195Z,11.00
2023-04-10T21:26:38.112Z,6.00
2023-04-10T21:29:05.566Z,11.00
2023-04-10T21:31:33.228Z,10.00
2023-04-10T21:34:00.849Z,6.00
2023-04-10T21:36:28.504Z,9.80
2023-04-10T21:38:56.400Z,9.40
2023-04-10T21:41:24.096Z,11.60
2023-04-10T21:43:51.871Z,10.20
2023-04-10T21:46:19.546Z,13.00
2023-04-10T21:48:47.084Z,12.60
2023-04-10T21:51:14.722Z,14.00
2023-04-10T21:53:42.393Z,10.00
2023-04-10T21:56:09.841Z,19.40
2023-04-10T21:58:38.355Z,10.60
2023-04-10T22:01:08.947Z,12.40
2023-04-10T22:03:36.676Z,10.60
2023-04-10T22:06:04.511Z,13.20
2023-04-10T22:08:32.122Z,16.00
2023-04-10T22:10:59.719Z,17.00
2023-04-10T22:13:30.754Z,10.60
2023-04-10T22:16:02.505Z,14.00
2023-04-10T22:18:30.429Z,14.00
2023-04-10T22:20:57.940Z,13.40
2023-04-10T22:23:25.437Z,9.20
2023-04-10T22:25:52.916Z,16.00
2023-04-10T22:28:20.653Z,13.80
2023-04-10T22:30:48.286Z,7.40
2023-04-10T22:33:16.033Z,12.00
2023-04-10T22:35:43.523Z,19.00
2023-04-10T22:38:10.904Z,17.60
2023-04-10T22:40:38.456Z,17.00
2023-04-10T22:43:06.025Z,17.80
2023-04-10T22:45:33.679Z,19.40
2023-04-10T22:48:01.338Z,18.00
2023-04-10T22:50:28.901Z,21.60
2023-04-10T22:52:56.319Z,17.20
2023-04-10T22:55:23.937Z,19.00
2023-04-10T22:57:51.424Z,13.00
2023-04-10T23:00:19.018Z,18.80
2023-04-10T23:02:46.727Z,15.40
2023-04-10T23:05:14.222Z,18.80
2023-04-10T23:07:41.683Z,15.00
2023-04-10T23:10:09.657Z,19.60
2023-04-10T23:12:38.006Z,13.00
2023-04-10T23:15:07.889Z,16.80
2023-04-10T23:17:35.487Z,17.60
2023-04-10T23:20:03.247Z,13.00
2023-04-10T23:22:31.376Z,13.60
2023-04-10T23:24:58.937Z,14.80
2023-04-10T23:27:26.419Z,14.80
2023-04-10T23:29:53.762Z,16.60
2023-04-10T23:32:21.111Z,18.60
2023-04-10T23:34:48.641Z,16.60
2023-04-10T23:37:16.147Z,13.20
2023-04-10T23:39:43.645Z,12.80
2023-04-10T23:42:11.180Z,15.20
2023-04-10T23:44:38.644Z,12.80
2023-04-10T23:47:06.749Z,13.00
2023-04-10T23:49:36.993Z,8.00
2023-04-10T23:52:04.581Z,12.00
2023-04-10T23:54:32.164Z,14.20
2023-04-10T23:56:59.856Z,12.80
2023-04-10T23:59:27.441Z,14.80
